createdAt,value
2022-10-23T00:01:26.706Z,5.00
2022-10-23T00:04:04.708Z,5.30
2022-10-23T00:06:34.115Z,5.80
2022-10-23T00:09:01.160Z,6.00
2022-10-23T00:11:30.967Z,5.90
2022-10-23T00:14:01.396Z,5.70
2022-10-23T00:16:29.264Z,5.70
2022-10-23T00:18:56.575Z,6.10
2022-10-23T00:21:27.940Z,6.40
2022-10-23T00:23:55.200Z,6.60
2022-10-23T00:26:22.381Z,5.90
2022-10-23T00:28:52.226Z,6.50
2022-10-23T00:31:22.138Z,5.60
2022-10-23T00:33:51.709Z,6.20
2022-10-23T00:36:21.834Z,6.50
2022-10-23T00:38:49.491Z,6.00
2022-10-23T00:41:29.107Z,4.30
2022-10-23T00:44:30.798Z,4.40
2022-10-23T00:46:59.387Z,5.10
2022-10-23T00:49:28.501Z,5.10
2022-10-23T00:52:04.926Z,5.30
2022-10-23T00:54:37.344Z,5.40
2022-10-23T00:57:07.223Z,5.40
2022-10-23T00:59:34.825Z,6.00
2022-10-23T01:02:03.756Z,5.90
2022-10-23T01:04:32.582Z,5.20
2022-10-23T01:07:02.381Z,5.50
2022-10-23T01:09:34.856Z,5.60
2022-10-23T01:12:26.609Z,5.70
2022-10-23T01:15:10.488Z,6.00
2022-10-23T01:18:02.665Z,5.90
2022-10-23T01:20:46.692Z,5.70
2022-10-23T01:23:16.632Z,5.70
2022-10-23T01:25:58.415Z,5.60
2022-10-23T01:28:34.580Z,5.90
2022-10-23T01:31:05.208Z,5.50
2022-10-23T01:34:00.727Z,5.20
2022-10-23T01:36:32.278Z,4.50
2022-10-23T01:39:08.953Z,5.00
2022-10-23T01:41:42.570Z,4.90
2022-10-23T01:44:15.125Z,5.00
2022-10-23T01:46:45.353Z,5.50
2022-10-23T01:49:15.228Z,4.90
2022-10-23T01:51:51.839Z,5.10
2022-10-23T01:54:21.408Z,5.30
2022-10-23T01:56:51.569Z,5.30
2022-10-23T01:59:46.575Z,5.50
2022-10-23T02:02:15.644Z,5.60
2022-10-23T02:04:53.875Z,5.30
2022-10-23T02:07:21.623Z,5.70
2022-10-23T02:09:51.041Z,5.40
2022-10-23T02:12:45.232Z,5.50
2022-10-23T02:15:22.088Z,5.50
2022-10-23T02:17:59.087Z,5.80
2022-10-23T02:20:52.515Z,5.00
2022-10-23T02:23:57.614Z,5.50
2022-10-23T02:26:30.086Z,5.60
2022-10-23T02:29:07.975Z,4.90
2022-10-23T02:31:38.800Z,4.90
2022-10-23T02:34:06.061Z,4.70
2022-10-23T02:36:33.511Z,4.50
2022-10-23T02:39:01.427Z,4.30
2022-10-23T02:41:53.616Z,5.10
2022-10-23T02:44:37.663Z,4.80
2022-10-23T02:47:30.286Z,4.80
2022-10-23T02:50:36.833Z,5.00
2022-10-23T02:53:12.941Z,4.80
2022-10-23T02:56:06.822Z,5.20
2022-10-23T02:58:45.441Z,5.30
2022-10-23T03:01:18.540Z,4.90
2022-10-23T03:03:58.486Z,4.70
2022-10-23T03:06:26.655Z,5.10
2022-10-23T03:08:59.741Z,5.30
2022-10-23T03:11:29.419Z,5.20
2022-10-23T03:13:57.876Z,5.10
2022-10-23T03:16:25.493Z,5.00
2022-10-23T03:18:54.767Z,5.90
2022-10-23T03:21:22.356Z,4.70
2022-10-23T03:23:52.288Z,5.60
2022-10-23T03:26:24.237Z,5.20
2022-10-23T03:28:51.179Z,4.50
2022-10-23T03:31:19.154Z,4.30
2022-10-23T03:33:46.610Z,4.10
2022-10-23T03:36:13.552Z,4.20
2022-10-23T03:38:40.930Z,4.40
2022-10-23T03:41:08.058Z,4.60
2022-10-23T03:43:35.002Z,4.80
2022-10-23T03:46:03.188Z,4.70
2022-10-23T03:48:32.681Z,4.80
2022-10-23T03:51:01.327Z,5.00
2022-10-23T03:53:29.960Z,5.10
2022-10-23T03:55:56.813Z,4.90
2022-10-23T03:58:25.153Z,4.90
2022-10-23T04:00:52.222Z,4.80
2022-10-23T04:03:19.172Z,5.30
2022-10-23T04:05:48.235Z,5.10
2022-10-23T04:08:19.182Z,5.00
2022-10-23T04:10:52.682Z,5.00
2022-10-23T04:13:25.669Z,4.70
2022-10-23T04:15:53.655Z,5.50
2022-10-23T04:18:20.819Z,5.00
2022-10-23T04:20:49.823Z,4.80
2022-10-23T04:23:18.176Z,5.10
2022-10-23T04:28:15.045Z,4.60
2022-10-23T04:30:42.811Z,4.10
2022-10-23T04:33:12.513Z,4.20
2022-10-23T04:35:39.749Z,4.00
2022-10-23T04:38:07.102Z,4.20
2022-10-23T04:40:34.270Z,4.50
2022-10-23T04:43:01.527Z,4.90
2022-10-23T04:45:32.309Z,4.60
2022-10-23T04:47:59.511Z,4.90
2022-10-23T04:50:26.974Z,5.10
2022-10-23T04:53:15.312Z,4.30
2022-10-23T04:56:15.646Z,4.60
2022-10-23T04:58:52.794Z,4.80
2022-10-23T05:01:20.020Z,4.50
2022-10-23T05:03:51.532Z,5.50
2022-10-23T05:06:18.917Z,5.20
2022-10-23T05:08:52.195Z,4.90
2022-10-23T05:11:19.238Z,5.20
2022-10-23T05:13:49.345Z,5.10
2022-10-23T05:16:50.085Z,4.80
2022-10-23T05:19:36.904Z,4.90
2022-10-23T05:22:05.947Z,4.70
2022-10-23T05:24:56.592Z,5.10
2022-10-23T05:27:25.990Z,4.90
2022-10-23T05:29:55.097Z,5.30
2022-10-23T05:32:29.824Z,4.30
2022-10-23T05:35:03.940Z,3.90
2022-10-23T05:37:32.006Z,4.10
2022-10-23T05:40:11.799Z,3.80
2022-10-23T05:42:41.811Z,4.30
2022-10-23T05:45:11.374Z,4.10
2022-10-23T05:48:05.758Z,4.30
2022-10-23T05:51:05.489Z,4.60
2022-10-23T05:53:57.905Z,4.30
2022-10-23T05:56:47.902Z,4.50
2022-10-23T05:59:38.413Z,5.00
2022-10-23T06:02:21.460Z,4.70
2022-10-23T06:04:52.386Z,4.60
2022-10-23T06:07:39.927Z,5.20
2022-10-23T06:10:09.705Z,4.80
2022-10-23T06:12:41.358Z,4.60
2022-10-23T06:15:11.704Z,4.60
2022-10-23T06:18:02.919Z,4.80
2022-10-23T06:20:34.573Z,4.90
2022-10-23T06:23:10.750Z,4.90
2022-10-23T06:26:15.996Z,4.60
2022-10-23T06:29:13.325Z,4.90
2022-10-23T06:31:42.212Z,4.80
2022-10-23T06:34:15.511Z,5.00
2022-10-23T06:36:42.965Z,4.90
2022-10-23T06:39:42.472Z,4.70
2022-10-23T06:42:30.451Z,4.80
2022-10-23T06:45:04.767Z,3.90
2022-10-23T06:47:54.462Z,3.60
2022-10-23T06:50:41.565Z,3.60
2022-10-23T06:53:13.903Z,4.40
2022-10-23T06:55:50.068Z,4.00
2022-10-23T06:58:24.173Z,4.40
2022-10-23T07:01:03.162Z,4.30
2022-10-23T07:03:56.362Z,4.60
2022-10-23T07:06:25.969Z,4.10
2022-10-23T07:08:53.676Z,4.20
2022-10-23T07:11:39.740Z,4.10
2022-10-23T07:14:07.540Z,4.30
2022-10-23T07:16:41.471Z,4.70
2022-10-23T07:19:09.265Z,4.70
2022-10-23T07:21:41.942Z,4.40
2022-10-23T07:24:21.785Z,4.40
2022-10-23T07:29:26.118Z,5.20
2022-10-23T07:31:53.376Z,5.00
2022-10-23T07:34:39.375Z,4.30
2022-10-23T07:37:31.472Z,4.80
2022-10-23T07:40:01.626Z,4.50
2022-10-23T07:42:33.186Z,5.00
2022-10-23T07:45:01.051Z,5.00
2022-10-23T07:47:33.155Z,5.00
2022-10-23T07:50:00.676Z,4.80
2022-10-23T07:52:33.468Z,4.70
2022-10-23T07:55:14.922Z,4.70
2022-10-23T07:57:55.305Z,4.70
2022-10-23T08:00:42.702Z,3.70
2022-10-23T08:03:23.298Z,4.00
2022-10-23T08:05:52.588Z,3.60
2022-10-23T08:08:22.916Z,3.70
2022-10-23T08:10:52.643Z,4.30
2022-10-23T08:13:25.537Z,4.20
2022-10-23T08:15:58.940Z,4.40
2022-10-23T08:18:51.436Z,4.50
2022-10-23T08:21:18.604Z,3.70
2022-10-23T08:23:47.664Z,4.50
2022-10-23T08:26:15.589Z,4.30
2022-10-23T08:28:44.998Z,4.50
2022-10-23T08:31:15.090Z,4.30
2022-10-23T08:33:51.481Z,4.70
2022-10-23T08:36:26.468Z,4.60
2022-10-23T08:38:55.895Z,4.70
2022-10-23T08:41:36.464Z,4.80
2022-10-23T08:44:33.614Z,4.70
2022-10-23T08:47:15.929Z,4.50
2022-10-23T08:50:46.811Z,4.60
2022-10-23T08:53:41.869Z,4.50
2022-10-23T08:56:21.608Z,4.70
2022-10-23T08:59:07.509Z,4.70
2022-10-23T09:01:42.438Z,4.60
2022-10-23T09:04:15.153Z,5.30
2022-10-23T09:07:13.286Z,3.90
2022-10-23T09:10:12.391Z,3.80
2022-10-23T09:12:40.289Z,3.60
2022-10-23T09:15:36.297Z,4.10
2022-10-23T09:18:13.962Z,3.80
2022-10-23T09:20:44.716Z,4.80
2022-10-23T09:23:21.189Z,4.60
2022-10-23T09:25:56.445Z,4.10
2022-10-23T09:28:31.667Z,4.60
2022-10-23T09:31:12.254Z,4.50
2022-10-23T09:33:42.754Z,4.00
2022-10-23T09:36:18.021Z,4.40
2022-10-23T09:38:49.934Z,4.80
2022-10-23T09:41:22.144Z,4.00
2022-10-23T09:44:07.697Z,4.20
2022-10-23T09:46:44.348Z,4.50
2022-10-23T09:49:24.139Z,4.50
2022-10-23T09:52:12.698Z,4.50
2022-10-23T09:54:46.971Z,4.50
2022-10-23T09:57:32.999Z,4.70
2022-10-23T10:00:05.269Z,4.40
2022-10-23T10:02:39.175Z,3.90
2022-10-23T10:05:33.898Z,4.20
2022-10-23T10:08:10.767Z,4.20
2022-10-23T10:10:43.627Z,4.30
2022-10-23T10:13:34.363Z,3.90
2022-10-23T10:16:29.608Z,4.30
2022-10-23T10:19:13.438Z,3.90
2022-10-23T10:21:40.431Z,4.10
2022-10-23T10:24:43.842Z,4.70
2022-10-23T10:27:40.248Z,4.30
2022-10-23T10:30:21.565Z,3.90
2022-10-23T10:33:24.473Z,4.20
2022-10-23T10:36:00.692Z,4.60
2022-10-23T10:38:45.480Z,4.30
2022-10-23T10:41:54.462Z,4.00
2022-10-23T10:45:02.263Z,4.30
2022-10-23T10:47:55.947Z,5.00
2022-10-23T10:50:36.082Z,4.70
2022-10-23T10:53:54.204Z,4.30
2022-10-23T10:56:28.297Z,4.20
2022-10-23T10:58:59.831Z,4.70
2022-10-23T11:01:43.578Z,5.20
2022-10-23T11:05:06.955Z,4.90
2022-10-23T11:07:55.541Z,5.00
2022-10-23T11:10:26.805Z,4.80
2022-10-23T11:12:54.088Z,4.70
2022-10-23T11:15:40.046Z,4.80
2022-10-23T11:18:15.329Z,5.20
2022-10-23T11:20:53.977Z,5.10
2022-10-23T11:23:44.446Z,4.80
2022-10-23T11:26:19.782Z,4.60
2022-10-23T11:29:22.213Z,4.60
2022-10-23T11:32:40.253Z,4.50
2022-10-23T11:35:31.640Z,4.30
2022-10-23T11:38:14.751Z,4.50
2022-10-23T11:40:54.012Z,4.70
2022-10-23T11:43:58.507Z,5.00
2022-10-23T11:46:28.207Z,4.60
2022-10-23T11:48:59.158Z,4.80
2022-10-23T11:51:40.996Z,4.80
2022-10-23T11:54:18.595Z,4.80
2022-10-23T11:57:13.854Z,4.60
2022-10-23T11:59:50.136Z,4.30
2022-10-23T12:02:38.985Z,4.80
2022-10-23T12:05:10.223Z,4.90
2022-10-23T12:07:42.058Z,4.70
2022-10-23T12:10:43.448Z,5.40
2022-10-23T12:13:31.608Z,4.70
2022-10-23T12:16:00.883Z,4.30
2022-10-23T12:18:30.184Z,4.90
2022-10-23T12:21:05.728Z,4.40
2022-10-23T12:24:03.960Z,5.20
2022-10-23T12:26:55.525Z,4.50
2022-10-23T12:29:44.827Z,4.80
2022-10-23T12:32:27.305Z,4.70
2022-10-23T12:35:23.637Z,4.90
2022-10-23T12:38:33.818Z,5.30
2022-10-23T12:41:27.646Z,4.80
2022-10-23T12:43:59.321Z,4.70
2022-10-23T12:46:55.054Z,3.90
2022-10-23T12:49:25.276Z,4.00
2022-10-23T12:52:17.084Z,4.50
2022-10-23T12:54:44.493Z,4.70
2022-10-23T12:57:27.242Z,4.40
2022-10-23T13:00:02.532Z,4.40
2022-10-23T13:02:32.733Z,4.60
2022-10-23T13:05:08.557Z,4.30
2022-10-23T13:07:45.727Z,4.50
2022-10-23T13:10:23.149Z,4.70
2022-10-23T13:13:06.515Z,4.40
2022-10-23T13:15:47.478Z,4.20
2022-10-23T13:18:17.294Z,4.80
2022-10-23T13:20:58.949Z,5.10
2022-10-23T13:23:32.586Z,4.50
2022-10-23T13:26:02.874Z,4.60
2022-10-23T13:28:34.498Z,4.80
2022-10-23T13:31:10.825Z,4.10
2022-10-23T13:33:54.883Z,4.80
2022-10-23T13:36:24.647Z,4.80
2022-10-23T13:39:11.452Z,4.40
2022-10-23T13:41:44.625Z,4.50
2022-10-23T13:44:14.603Z,4.80
2022-10-23T13:46:45.051Z,5.10
2022-10-23T13:49:12.786Z,4.50
2022-10-23T13:51:48.978Z,4.80
2022-10-23T13:54:23.243Z,4.50
2022-10-23T13:56:54.457Z,4.60
2022-10-23T13:59:22.288Z,4.30
2022-10-23T14:01:51.668Z,4.20
2022-10-23T14:04:22.724Z,4.20
2022-10-23T14:06:50.248Z,4.10
2022-10-23T14:09:18.975Z,4.30
2022-10-23T14:11:48.074Z,4.50
2022-10-23T14:14:15.952Z,4.60
2022-10-23T14:16:43.190Z,4.30
2022-10-23T14:19:12.082Z,4.70
2022-10-23T14:21:39.224Z,4.70
2022-10-23T14:24:06.781Z,4.90
2022-10-23T14:26:35.487Z,5.00
2022-10-23T14:29:06.942Z,5.30
2022-10-23T14:31:39.306Z,4.50
2022-10-23T14:34:07.886Z,4.60
2022-10-23T14:36:49.404Z,5.40
2022-10-23T14:39:18.664Z,5.20
2022-10-23T14:41:45.644Z,4.40
2022-10-23T14:44:13.381Z,4.60
2022-10-23T14:46:49.436Z,4.10
2022-10-23T14:49:16.380Z,4.20
2022-10-23T14:51:46.500Z,4.00
2022-10-23T14:54:14.053Z,4.00
2022-10-23T14:56:41.411Z,3.70
2022-10-23T14:59:10.843Z,4.20
2022-10-23T15:01:48.185Z,4.00
2022-10-23T15:04:24.277Z,4.40
2022-10-23T15:06:51.673Z,3.50
2022-10-23T15:09:21.216Z,4.00
2022-10-23T15:11:48.920Z,4.00
2022-10-23T15:14:15.941Z,4.20
2022-10-23T15:16:43.013Z,4.80
2022-10-23T15:19:18.503Z,4.30
2022-10-23T15:21:47.547Z,4.30
2022-10-23T15:24:16.476Z,4.20
2022-10-23T15:26:44.612Z,4.20
2022-10-23T15:29:12.990Z,3.70
2022-10-23T15:31:42.825Z,4.20
2022-10-23T15:34:12.674Z,3.90
2022-10-23T15:36:40.462Z,3.70
2022-10-23T15:39:17.116Z,3.30
2022-10-23T15:41:45.102Z,3.30
2022-10-23T15:44:17.178Z,3.20
2022-10-23T15:46:44.727Z,3.00
2022-10-23T15:49:12.954Z,3.30
2022-10-23T15:51:51.493Z,3.20
2022-10-23T15:54:20.537Z,3.40
2022-10-23T15:56:51.242Z,3.10
2022-10-23T15:59:20.303Z,3.60
2022-10-23T16:01:47.797Z,3.20
2022-10-23T16:04:17.376Z,3.50
2022-10-23T16:06:46.146Z,3.50
2022-10-23T16:09:13.875Z,3.30
2022-10-23T16:11:43.686Z,3.30
2022-10-23T16:14:16.723Z,3.50
2022-10-23T16:16:45.145Z,3.50
2022-10-23T16:19:13.247Z,3.30
2022-10-23T16:21:41.086Z,3.10
2022-10-23T16:24:10.543Z,3.40
2022-10-23T16:26:40.751Z,3.40
2022-10-23T16:29:12.805Z,2.60
2022-10-23T16:31:39.816Z,2.70
2022-10-23T16:34:07.272Z,3.00
2022-10-23T16:36:35.047Z,2.80
2022-10-23T16:39:40.799Z,2.60
2022-10-23T16:42:41.127Z,3.30
2022-10-23T16:45:12.982Z,2.70
2022-10-23T16:47:40.892Z,2.70
2022-10-23T16:50:09.022Z,3.00
2022-10-23T16:52:36.380Z,2.70
2022-10-23T16:55:03.940Z,2.70
2022-10-23T16:57:30.987Z,3.00
2022-10-23T16:59:58.136Z,2.60
2022-10-23T17:02:28.118Z,2.70
2022-10-23T17:04:55.619Z,3.10
2022-10-23T17:07:24.412Z,3.00
2022-10-23T17:09:51.661Z,2.70
2022-10-23T17:12:18.632Z,2.90
2022-10-23T17:14:45.961Z,3.10
2022-10-23T17:17:14.123Z,2.60
2022-10-23T17:19:46.071Z,2.90
2022-10-23T17:22:15.188Z,2.30
2022-10-23T17:24:45.335Z,2.50
2022-10-23T17:27:14.711Z,2.00
2022-10-23T17:29:41.654Z,2.40
2022-10-23T17:32:10.389Z,2.60
2022-10-23T17:34:38.744Z,2.50
2022-10-23T17:37:05.765Z,2.70
2022-10-23T17:39:33.955Z,2.30
2022-10-23T17:42:01.409Z,2.40
2022-10-23T17:44:29.673Z,2.60
2022-10-23T17:46:56.831Z,2.60
2022-10-23T17:49:27.257Z,2.70
2022-10-23T17:51:57.992Z,2.60
2022-10-23T17:54:26.880Z,2.50
2022-10-23T17:56:54.248Z,2.80
2022-10-23T17:59:22.514Z,2.50
2022-10-23T18:01:51.063Z,2.80
2022-10-23T18:04:20.318Z,2.60
2022-10-23T18:06:54.524Z,2.20
2022-10-23T18:09:23.406Z,2.40
2022-10-23T18:11:50.795Z,2.40
2022-10-23T18:14:19.740Z,2.20
2022-10-23T18:16:47.616Z,2.20
2022-10-23T18:19:18.767Z,2.10
2022-10-23T18:21:48.061Z,2.20
2022-10-23T18:24:17.197Z,2.40
2022-10-23T18:26:44.730Z,2.40
2022-10-23T18:29:14.220Z,2.50
2022-10-23T18:31:42.316Z,2.40
2022-10-23T18:34:16.948Z,2.60
2022-10-23T18:36:44.472Z,2.70
2022-10-23T18:39:15.252Z,2.50
2022-10-23T18:41:45.156Z,2.20
2022-10-23T18:44:20.618Z,2.10
2022-10-23T18:46:48.766Z,2.60
2022-10-23T18:49:18.354Z,2.30
2022-10-23T18:51:48.272Z,2.10
2022-10-23T18:54:21.040Z,2.40
2022-10-23T18:56:49.431Z,2.20
2022-10-23T18:59:19.593Z,2.40
2022-10-23T19:01:46.736Z,2.00
2022-10-23T19:04:19.214Z,1.90
2022-10-23T19:06:48.082Z,1.90
2022-10-23T19:09:16.041Z,2.20
2022-10-23T19:11:45.394Z,2.00
2022-10-23T19:14:13.604Z,2.00
2022-10-23T19:16:55.201Z,2.50
2022-10-23T19:19:27.261Z,2.10
2022-10-23T19:21:57.083Z,2.00
2022-10-23T19:24:34.328Z,2.30
2022-10-23T19:27:02.846Z,2.20
2022-10-23T19:29:33.429Z,2.40
2022-10-23T19:32:00.844Z,2.00
2022-10-23T19:34:30.489Z,2.20
2022-10-23T19:36:59.878Z,1.90
2022-10-23T19:39:28.973Z,2.40
2022-10-23T19:42:01.046Z,2.30
2022-10-23T19:44:28.258Z,2.00
2022-10-23T19:46:55.733Z,2.20
2022-10-23T19:49:24.060Z,2.20
2022-10-23T19:51:52.675Z,2.30
2022-10-23T19:54:21.007Z,2.40
2022-10-23T19:56:49.140Z,2.30
2022-10-23T19:59:19.346Z,1.90
2022-10-23T20:01:48.211Z,1.90
2022-10-23T20:04:19.281Z,1.80
2022-10-23T20:06:49.601Z,1.90
2022-10-23T20:09:21.161Z,2.00
2022-10-23T20:11:49.643Z,2.20
2022-10-23T20:14:20.185Z,2.20
2022-10-23T20:16:52.163Z,2.30
2022-10-23T20:19:24.718Z,2.10
2022-10-23T20:21:52.220Z,2.20
2022-10-23T20:24:20.750Z,2.10
2022-10-23T20:26:54.382Z,2.50
2022-10-23T20:29:23.142Z,2.00
2022-10-23T20:31:52.668Z,2.50
2022-10-23T20:34:22.351Z,2.10
2022-10-23T20:36:49.982Z,2.30
2022-10-23T20:39:25.635Z,2.60
2022-10-23T20:41:55.532Z,2.20
2022-10-23T20:44:24.186Z,1.90
2022-10-23T20:46:53.205Z,1.90
2022-10-23T20:49:21.058Z,1.80
2022-10-23T20:51:55.901Z,1.60
2022-10-23T20:54:29.066Z,2.00
2022-10-23T20:56:57.695Z,1.80
2022-10-23T20:59:25.091Z,2.20
2022-10-23T21:01:55.592Z,1.90
2022-10-23T21:04:28.417Z,2.20
2022-10-23T21:07:14.110Z,2.40
2022-10-23T21:09:41.233Z,2.40
2022-10-23T21:12:09.248Z,2.50
2022-10-23T21:14:38.202Z,2.40
2022-10-23T21:17:05.721Z,2.80
2022-10-23T21:19:32.699Z,2.20
2022-10-23T21:22:00.367Z,2.30
2022-10-23T21:24:27.723Z,2.40
2022-10-23T21:26:55.799Z,2.10
2022-10-23T21:29:22.657Z,2.50
2022-10-23T21:31:55.503Z,2.30
2022-10-23T21:34:27.253Z,2.10
2022-10-23T21:37:11.777Z,1.90
2022-10-23T21:39:41.273Z,2.50
2022-10-23T21:42:09.237Z,2.30
2022-10-23T21:44:36.829Z,2.40
2022-10-23T21:47:03.869Z,2.00
2022-10-23T21:49:32.947Z,2.10
2022-10-23T21:52:00.086Z,2.00
2022-10-23T21:54:27.415Z,2.20
2022-10-23T21:56:55.075Z,2.50
2022-10-23T21:59:25.901Z,2.30
2022-10-23T22:01:55.566Z,2.40
2022-10-23T22:04:24.447Z,2.50
2022-10-23T22:06:51.458Z,2.50
2022-10-23T22:09:20.255Z,2.30
2022-10-23T22:11:49.656Z,2.40
2022-10-23T22:14:18.923Z,2.30
2022-10-23T22:16:46.507Z,2.10
2022-10-23T22:19:15.707Z,2.10
2022-10-23T22:21:43.165Z,2.10
2022-10-23T22:24:10.929Z,2.10
2022-10-23T22:26:41.489Z,2.00
2022-10-23T22:29:11.911Z,2.20
2022-10-23T22:31:43.005Z,2.60
2022-10-23T22:34:25.347Z,2.30
2022-10-23T22:37:01.395Z,2.10
2022-10-23T22:39:28.443Z,2.40
2022-10-23T22:41:55.496Z,2.60
2022-10-23T22:44:22.953Z,2.10
2022-10-23T22:46:50.514Z,2.80
2022-10-23T22:49:18.100Z,2.30
2022-10-23T22:51:47.508Z,2.50
2022-10-23T22:54:15.452Z,2.20
2022-10-23T22:56:42.804Z,2.40
2022-10-23T22:59:10.062Z,2.40
2022-10-23T23:01:45.608Z,2.20
2022-10-23T23:07:11.030Z,1.80
2022-10-23T23:09:40.234Z,2.20
2022-10-23T23:12:10.875Z,1.80
2022-10-23T23:14:39.245Z,2.50
2022-10-23T23:17:07.931Z,2.40
2022-10-23T23:19:35.846Z,2.30
2022-10-23T23:22:03.357Z,2.40
2022-10-23T23:24:30.817Z,2.60
2022-10-23T23:26:58.170Z,2.20
2022-10-23T23:29:25.206Z,2.50
2022-10-23T23:31:52.151Z,2.50
2022-10-23T23:34:19.355Z,2.40
2022-10-23T23:36:49.766Z,2.50
2022-10-23T23:39:17.188Z,2.90
2022-10-23T23:41:49.459Z,2.50
2022-10-23T23:44:16.405Z,2.40
2022-10-23T23:46:43.350Z,2.30
2022-10-23T23:49:10.510Z,2.10
2022-10-23T23:51:37.942Z,2.10
2022-10-23T23:54:05.001Z,2.10
2022-10-23T23:56:32.260Z,2.20
2022-10-23T23:58:59.128Z,2.30
